createdAt,value
2022-09-23T00:00:00.452Z,1.56
2022-09-23T00:01:00.522Z,1.89
2022-09-23T00:02:00.546Z,1.83
2022-09-23T00:03:00.559Z,2.17
2022-09-23T00:04:00.465Z,2.17
2022-09-23T00:05:00.467Z,2.17
2022-09-23T00:06:00.549Z,1.89
2022-09-23T00:07:00.463Z,2
2022-09-23T00:08:00.462Z,1.83
2022-09-23T00:09:00.503Z,1.61
2022-09-23T00:10:00.461Z,1.5
2022-09-23T00:11:00.464Z,1.39
2022-09-23T00:12:00.482Z,1.06
2022-09-23T00:13:00.466Z,1.5
2022-09-23T00:14:00.468Z,1.5
2022-09-23T00:15:00.467Z,1.67
2022-09-23T00:16:00.464Z,1.61
2022-09-23T00:17:00.583Z,1.67
2022-09-23T00:18:00.475Z,1.61
2022-09-23T00:19:00.464Z,1.67
2022-09-23T00:20:00.473Z,1.5
2022-09-23T00:21:00.473Z,1.61
2022-09-23T00:22:00.492Z,1.83
2022-09-23T00:23:00.480Z,1.72
2022-09-23T00:24:00.473Z,1.61
2022-09-23T00:25:00.471Z,1.61
2022-09-23T00:26:00.461Z,1.61
2022-09-23T00:27:00.476Z,1.5
2022-09-23T00:28:00.471Z,1.61
2022-09-23T00:29:00.470Z,1.72
2022-09-23T00:30:00.470Z,1.67
2022-09-23T00:31:00.513Z,1.5
2022-09-23T00:32:00.473Z,1.72
2022-09-23T00:33:00.464Z,1.61
2022-09-23T00:34:00.469Z,1.61
2022-09-23T00:35:00.474Z,1.5
2022-09-23T00:36:00.467Z,1.5
2022-09-23T00:37:00.473Z,1.61
2022-09-23T00:38:00.498Z,1.17
2022-09-23T00:39:00.476Z,1.72
2022-09-23T00:40:00.470Z,1.72
2022-09-23T00:41:00.477Z,2
2022-09-23T00:42:00.469Z,1.89
2022-09-23T00:43:00.482Z,1.72
2022-09-23T00:44:00.488Z,2
2022-09-23T00:45:00.479Z,2.17
2022-09-23T00:46:00.529Z,1.89
2022-09-23T00:47:00.478Z,2
2022-09-23T00:48:00.480Z,1.89
2022-09-23T00:49:00.482Z,1.89
2022-09-23T00:50:00.472Z,1.89
2022-09-23T00:51:00.480Z,1.72
2022-09-23T00:52:00.481Z,2
2022-09-23T00:53:00.485Z,1.89
2022-09-23T00:54:00.507Z,2.28
2022-09-23T00:55:00.479Z,2.17
2022-09-23T00:56:00.485Z,1.89
2022-09-23T00:57:00.487Z,1.61
2022-09-23T00:58:00.477Z,1.5
2022-09-23T00:59:00.477Z,1.5
2022-09-23T01:00:00.474Z,1.5
2022-09-23T01:01:00.622Z,1.5
2022-09-23T01:02:00.572Z,1.17
2022-09-23T01:03:00.486Z,1.72
2022-09-23T01:04:00.478Z,1.5
2022-09-23T01:05:00.489Z,1.33
2022-09-23T01:06:00.483Z,1.33
2022-09-23T01:07:00.481Z,1.33
2022-09-23T01:08:00.483Z,1.33
2022-09-23T01:09:00.487Z,1.17
2022-09-23T01:10:00.507Z,1.33
2022-09-23T01:11:00.479Z,1.61
2022-09-23T01:12:00.479Z,1.33
2022-09-23T01:13:00.484Z,1.17
2022-09-23T01:14:00.489Z,1.06
2022-09-23T01:15:00.494Z,0.89
2022-09-23T01:16:00.483Z,1.06
2022-09-23T01:17:00.535Z,0.89
2022-09-23T01:18:00.482Z,0.89
2022-09-23T01:19:00.483Z,1.61
2022-09-23T01:20:00.486Z,1.5
2022-09-23T01:21:00.491Z,1.72
2022-09-23T01:22:00.484Z,1.5
2022-09-23T01:23:00.485Z,1.33
2022-09-23T01:24:00.485Z,1.33
2022-09-23T01:25:00.491Z,1.17
2022-09-23T01:26:00.510Z,0.61
2022-09-23T01:27:00.494Z,1.33
2022-09-23T01:28:00.493Z,1.33
2022-09-23T01:29:00.495Z,1.61
2022-09-23T01:30:00.492Z,0.89
2022-09-23T01:31:00.551Z,1.33
2022-09-23T01:32:00.496Z,1.33
2022-09-23T01:33:00.504Z,1.33
2022-09-23T01:34:00.486Z,1.17
2022-09-23T01:35:00.500Z,1.17
2022-09-23T01:36:00.498Z,1.06
2022-09-23T01:37:00.497Z,0.89
2022-09-23T01:38:00.503Z,0.83
2022-09-23T01:39:00.575Z,0.72
2022-09-23T01:40:00.489Z,0.89
2022-09-23T01:41:00.494Z,0.89
2022-09-23T01:42:00.519Z,1.17
2022-09-23T01:43:00.488Z,1.06
2022-09-23T01:44:00.489Z,1.33
2022-09-23T01:45:00.498Z,1.33
2022-09-23T01:46:00.501Z,0.89
2022-09-23T01:47:00.506Z,0.89
2022-09-23T01:48:00.529Z,0.72
2022-09-23T01:49:00.502Z,0.89
2022-09-23T01:50:00.506Z,0.72
2022-09-23T01:51:00.499Z,0.61
2022-09-23T01:52:00.507Z,0.44
2022-09-23T01:53:00.498Z,0.72
2022-09-23T01:54:00.495Z,1.17
2022-09-23T01:55:00.497Z,1.33
2022-09-23T01:56:00.504Z,1.33
2022-09-23T01:57:00.504Z,1.33
2022-09-23T01:58:00.520Z,1.5
2022-09-23T01:59:00.501Z,1.72
2022-09-23T02:00:00.489Z,1.89
2022-09-23T02:01:00.575Z,1.89
2022-09-23T02:02:00.531Z,1.72
2022-09-23T02:03:00.504Z,1.72
2022-09-23T02:04:00.502Z,1.33
2022-09-23T02:05:00.510Z,1.17
2022-09-23T02:06:00.512Z,1.17
2022-09-23T02:07:00.507Z,0.89
2022-09-23T02:08:00.507Z,0.89
2022-09-23T02:09:00.500Z,0.89
2022-09-23T02:10:00.504Z,0.72
2022-09-23T02:11:00.499Z,0.44
2022-09-23T02:12:00.506Z,0.17
2022-09-23T02:13:00.495Z,0.72
2022-09-23T02:14:00.581Z,0.89
2022-09-23T02:15:00.505Z,0.72
2022-09-23T02:16:00.496Z,0.89
2022-09-23T02:17:00.587Z,0.89
2022-09-23T02:18:00.505Z,1.06
2022-09-23T02:19:00.498Z,1.06
2022-09-23T02:20:00.501Z,1.17
2022-09-23T02:21:00.508Z,1.33
2022-09-23T02:22:00.512Z,1.33
2022-09-23T02:23:00.510Z,1.06
2022-09-23T02:24:00.510Z,1.33
2022-09-23T02:25:00.501Z,1.33
2022-09-23T02:26:00.504Z,1.33
2022-09-23T02:27:00.510Z,1.06
2022-09-23T02:28:00.511Z,1.17
2022-09-23T02:29:00.508Z,0.89
2022-09-23T02:30:00.595Z,0.89
2022-09-23T02:31:00.505Z,0.89
2022-09-23T02:32:00.580Z,1.17
2022-09-23T02:33:00.501Z,0.89
2022-09-23T02:34:00.513Z,0.89
2022-09-23T02:35:00.516Z,1.06
2022-09-23T02:36:00.507Z,1.06
2022-09-23T02:37:00.525Z,0.89
2022-09-23T02:38:00.507Z,0.89
2022-09-23T02:39:00.515Z,0.61
2022-09-23T02:40:00.499Z,0.72
2022-09-23T02:41:00.507Z,0.72
2022-09-23T02:42:00.509Z,0.44
2022-09-23T02:43:00.514Z,0.28
2022-09-23T02:44:00.512Z,0.44
2022-09-23T02:45:00.510Z,0
2022-09-23T02:46:00.659Z,0.28
2022-09-23T02:47:00.545Z,0.17
2022-09-23T02:48:00.510Z,0.44
2022-09-23T02:49:00.513Z,0.61
2022-09-23T02:50:00.512Z,0.61
2022-09-23T02:51:00.510Z,0.72
2022-09-23T02:52:00.503Z,0.61
2022-09-23T02:53:00.519Z,0.44
2022-09-23T02:54:00.511Z,0.44
2022-09-23T02:55:00.514Z,0.61
2022-09-23T02:56:00.522Z,0.89
2022-09-23T02:57:00.513Z,0.72
2022-09-23T02:58:00.512Z,0.44
2022-09-23T02:59:00.523Z,0.72
2022-09-23T03:00:00.512Z,0.72
2022-09-23T03:01:00.558Z,0.89
2022-09-23T03:02:00.619Z,0.72
2022-09-23T03:03:00.516Z,0.28
2022-09-23T03:04:00.516Z,0.44
2022-09-23T03:05:00.512Z,0.61
2022-09-23T03:06:00.517Z,1.06
2022-09-23T03:07:00.514Z,1.33
2022-09-23T03:08:00.514Z,1.17
2022-09-23T03:09:00.516Z,1.33
2022-09-23T03:10:00.506Z,1.33
2022-09-23T03:11:00.512Z,1.33
2022-09-23T03:12:00.518Z,1.17
2022-09-23T03:13:00.511Z,1.06
2022-09-23T03:14:00.513Z,0.72
2022-09-23T03:15:00.519Z,0.89
2022-09-23T03:16:00.666Z,1.17
2022-09-23T03:17:00.525Z,1.61
2022-09-23T03:18:00.555Z,1.61
2022-09-23T03:19:00.518Z,1.17
2022-09-23T03:20:00.519Z,1.61
2022-09-23T03:21:00.519Z,1.61
2022-09-23T03:22:00.522Z,1.33
2022-09-23T03:23:00.516Z,1.33
2022-09-23T03:24:00.517Z,1.17
2022-09-23T03:25:00.515Z,1.33
2022-09-23T03:26:00.514Z,1.5
2022-09-23T03:27:00.523Z,1.5
2022-09-23T03:28:00.517Z,1.61
2022-09-23T03:29:00.533Z,1.61
2022-09-23T03:30:00.529Z,1.72
2022-09-23T03:31:00.523Z,1.72
2022-09-23T03:32:00.571Z,1.72
2022-09-23T03:33:00.521Z,1.33
2022-09-23T03:34:00.545Z,1.5
2022-09-23T03:35:00.523Z,1.33
2022-09-23T03:36:00.517Z,1.33
2022-09-23T03:37:00.518Z,1.33
2022-09-23T03:38:00.522Z,1.17
2022-09-23T03:39:00.520Z,1.61
2022-09-23T03:40:00.530Z,1.5
2022-09-23T03:41:00.528Z,1.72
2022-09-23T03:42:00.519Z,1.61
2022-09-23T03:43:00.524Z,1.61
2022-09-23T03:44:00.528Z,1.72
2022-09-23T03:45:00.543Z,1.61
2022-09-23T03:46:00.566Z,1.5
2022-09-23T03:47:00.532Z,2.17
2022-09-23T03:48:00.523Z,2.44
2022-09-23T03:49:00.529Z,1.89
2022-09-23T03:50:00.617Z,2.17
2022-09-23T03:51:00.539Z,2
2022-09-23T03:52:00.533Z,2
2022-09-23T03:53:00.544Z,1.72
2022-09-23T03:54:00.532Z,1.61
2022-09-23T03:55:00.519Z,1.61
2022-09-23T03:56:00.528Z,1.72
2022-09-23T03:57:00.534Z,1.61
2022-09-23T03:58:00.524Z,1.72
2022-09-23T03:59:00.525Z,1.89
2022-09-23T04:00:00.529Z,1.72
2022-09-23T04:01:00.565Z,2
2022-09-23T04:02:00.600Z,1.72
2022-09-23T04:03:00.532Z,1.72
2022-09-23T04:04:00.527Z,1.61
2022-09-23T04:05:00.538Z,2.17
2022-09-23T04:06:00.560Z,2.17
2022-09-23T04:07:00.528Z,2.44
2022-09-23T04:08:00.530Z,2.28
2022-09-23T04:09:00.527Z,2.61
2022-09-23T04:10:00.526Z,2.44
2022-09-23T04:11:00.529Z,2.17
2022-09-23T04:12:00.545Z,2.44
2022-09-23T04:13:00.533Z,2.61
2022-09-23T04:14:00.537Z,2.44
2022-09-23T04:15:00.544Z,2.17
2022-09-23T04:16:00.571Z,1.72
2022-09-23T04:17:00.531Z,1.89
2022-09-23T04:18:00.531Z,1.61
2022-09-23T04:19:00.531Z,1.89
2022-09-23T04:20:00.536Z,1.89
2022-09-23T04:21:00.534Z,1.72
2022-09-23T04:22:00.561Z,1.61
2022-09-23T04:23:00.531Z,2
2022-09-23T04:24:00.535Z,1.89
2022-09-23T04:25:00.537Z,2
2022-09-23T04:26:00.542Z,1.89
2022-09-23T04:27:00.526Z,2.17
2022-09-23T04:28:00.540Z,2
2022-09-23T04:29:00.540Z,1.72
2022-09-23T04:30:00.534Z,1.72
2022-09-23T04:31:00.534Z,1.5
2022-09-23T04:32:00.567Z,1.33
2022-09-23T04:33:00.544Z,1.61
2022-09-23T04:34:00.530Z,1.61
2022-09-23T04:35:00.540Z,1.33
2022-09-23T04:36:00.534Z,1.33
2022-09-23T04:37:00.539Z,1.5
2022-09-23T04:38:00.561Z,1.17
2022-09-23T04:39:00.607Z,1.61
2022-09-23T04:40:00.540Z,1.17
2022-09-23T04:41:00.537Z,1.5
2022-09-23T04:42:00.537Z,2
2022-09-23T04:43:00.540Z,1.72
2022-09-23T04:44:00.541Z,2
2022-09-23T04:45:00.542Z,1.89
2022-09-23T04:46:00.542Z,2.17
2022-09-23T04:47:00.565Z,2
2022-09-23T04:48:00.540Z,1.89
2022-09-23T04:49:00.636Z,2
2022-09-23T04:50:00.544Z,1.89
2022-09-23T04:51:00.542Z,2.17
2022-09-23T04:52:00.543Z,1.89
2022-09-23T04:53:00.543Z,1.89
2022-09-23T04:54:00.568Z,2.17
2022-09-23T04:55:00.550Z,2
2022-09-23T04:56:00.552Z,2
2022-09-23T04:57:00.546Z,2.17
2022-09-23T04:58:00.547Z,2
2022-09-23T04:59:00.542Z,2
2022-09-23T05:00:00.546Z,2.17
2022-09-23T05:01:04.466Z,2.28
2022-09-23T05:02:00.596Z,2.17
2022-09-23T05:03:00.540Z,2.17
2022-09-23T05:04:00.550Z,2.28
2022-09-23T05:05:00.549Z,2.28
2022-09-23T05:06:00.544Z,2
2022-09-23T05:07:03.178Z,1.89
2022-09-23T05:08:00.542Z,2.28
2022-09-23T05:09:00.553Z,2.17
2022-09-23T05:10:00.569Z,2.28
2022-09-23T05:11:00.547Z,2.44
2022-09-23T05:12:00.548Z,2.17
2022-09-23T05:13:00.549Z,2.28
2022-09-23T05:14:00.547Z,2.44
2022-09-23T05:15:00.554Z,2.61
2022-09-23T05:16:00.582Z,2
2022-09-23T05:17:00.547Z,2.44
2022-09-23T05:18:00.546Z,2.61
2022-09-23T05:19:00.596Z,2.17
2022-09-23T05:20:00.552Z,2.61
2022-09-23T05:21:00.553Z,2.61
2022-09-23T05:22:00.550Z,2.72
2022-09-23T05:23:00.557Z,2.44
2022-09-23T05:24:00.666Z,2.44
2022-09-23T05:25:00.542Z,2.61
2022-09-23T05:26:00.576Z,2.44
2022-09-23T05:27:00.550Z,2.61
2022-09-23T05:28:00.551Z,2.89
2022-09-23T05:29:00.642Z,2.44
2022-09-23T05:30:00.554Z,2.61
2022-09-23T05:31:00.579Z,2.44
2022-09-23T05:32:00.614Z,2.72
2022-09-23T05:33:00.552Z,2.72
2022-09-23T05:34:00.548Z,2.72
2022-09-23T05:35:00.549Z,2.89
2022-09-23T05:36:00.558Z,2.61
2022-09-23T05:37:00.548Z,3
2022-09-23T05:38:00.559Z,2.44
2022-09-23T05:39:00.613Z,2.61
2022-09-23T05:40:00.549Z,2.72
2022-09-23T05:41:00.554Z,2.61
2022-09-23T05:42:00.581Z,2.72
2022-09-23T05:43:00.561Z,3
2022-09-23T05:44:00.555Z,3
2022-09-23T05:45:00.558Z,2.72
2022-09-23T05:46:01.628Z,2.44
2022-09-23T05:47:00.625Z,2.72
2022-09-23T05:48:00.564Z,2.89
2022-09-23T05:49:02.781Z,3
2022-09-23T05:50:00.877Z,3.17
2022-09-23T05:51:00.558Z,3
2022-09-23T05:52:00.550Z,2.89
2022-09-23T05:53:00.558Z,2.89
2022-09-23T05:54:00.564Z,2.72
2022-09-23T05:55:00.555Z,2.89
2022-09-23T05:56:00.602Z,2.89
2022-09-23T05:57:02.616Z,2.72
2022-09-23T05:58:00.577Z,3
2022-09-23T05:59:00.702Z,3
2022-09-23T06:00:00.552Z,2.89
2022-09-23T06:01:00.561Z,2.61
2022-09-23T06:02:00.576Z,2.61
2022-09-23T06:03:00.590Z,2.89
2022-09-23T06:04:00.632Z,2.89
2022-09-23T06:05:00.554Z,2.89
2022-09-23T06:06:00.562Z,2.89
2022-09-23T06:07:03.447Z,2.89
2022-09-23T06:08:00.562Z,2.72
2022-09-23T06:09:00.577Z,2.72
2022-09-23T06:10:00.567Z,2.72
2022-09-23T06:11:00.560Z,2.72
2022-09-23T06:12:00.565Z,3
2022-09-23T06:13:00.562Z,3
2022-09-23T06:14:00.590Z,2.89
2022-09-23T06:15:00.564Z,2.89
2022-09-23T06:16:00.596Z,2.89
2022-09-23T06:17:00.580Z,3
2022-09-23T06:18:00.560Z,3
2022-09-23T06:19:04.520Z,3.17
2022-09-23T06:20:00.557Z,2.89
2022-09-23T06:21:00.564Z,3
2022-09-23T06:22:00.562Z,3
2022-09-23T06:23:00.567Z,2.72
2022-09-23T06:24:00.557Z,2.89
2022-09-23T06:25:00.569Z,2.89
2022-09-23T06:26:00.572Z,2.89
2022-09-23T06:27:00.567Z,3.83
2022-09-23T06:28:00.561Z,3
2022-09-23T06:29:00.561Z,3
2022-09-23T06:30:00.588Z,3
2022-09-23T06:31:00.607Z,2.72
2022-09-23T06:32:00.667Z,2.89
2022-09-23T06:33:00.564Z,3
2022-09-23T06:34:12.108Z,3
2022-09-23T06:35:00.568Z,2.89
2022-09-23T06:36:00.572Z,2.72
2022-09-23T06:37:09.131Z,2.72
2022-09-23T06:38:00.563Z,2.72
2022-09-23T06:39:00.568Z,2.89
2022-09-23T06:40:00.563Z,2.72
2022-09-23T06:41:00.564Z,3
2022-09-23T06:42:00.572Z,3
2022-09-23T06:43:00.571Z,2.89
2022-09-23T06:44:00.564Z,2.89
2022-09-23T06:45:00.573Z,3.33
2022-09-23T06:46:00.603Z,3.44
2022-09-23T06:47:00.633Z,3.44
2022-09-23T06:48:00.560Z,3.44
2022-09-23T06:49:00.572Z,3.17
2022-09-23T06:50:00.574Z,3.44
2022-09-23T06:51:00.575Z,3.44
2022-09-23T06:52:00.579Z,3.44
2022-09-23T06:53:00.569Z,3.33
2022-09-23T06:54:00.620Z,3.17
2022-09-23T06:55:00.572Z,3.44
2022-09-23T06:56:00.579Z,3.17
2022-09-23T06:57:00.575Z,3.33
2022-09-23T06:58:00.602Z,3.44
2022-09-23T06:59:00.571Z,3.33
2022-09-23T07:00:00.569Z,3.56
2022-09-23T07:01:00.571Z,3.56
2022-09-23T07:02:00.744Z,3.33
2022-09-23T07:03:00.631Z,3.72
2022-09-23T07:04:00.729Z,3.72
2022-09-23T07:05:00.582Z,3.72
2022-09-23T07:06:00.591Z,3.56
2022-09-23T07:07:00.576Z,3.72
2022-09-23T07:08:00.577Z,3.83
2022-09-23T07:09:00.576Z,3.83
2022-09-23T07:10:00.585Z,3.83
2022-09-23T07:11:00.586Z,4.28
2022-09-23T07:12:00.581Z,4
2022-09-23T07:13:00.579Z,3.83
2022-09-23T07:14:00.582Z,4.28
2022-09-23T07:15:00.575Z,4.28
2022-09-23T07:16:00.702Z,4.17
2022-09-23T07:17:00.588Z,4
2022-09-23T07:18:00.624Z,3.56
2022-09-23T07:19:00.574Z,4.17
2022-09-23T07:20:00.583Z,4.17
2022-09-23T07:21:00.579Z,4.17
2022-09-23T07:22:00.578Z,4.17
2022-09-23T07:23:00.591Z,4.56
2022-09-23T07:24:00.583Z,4.44
2022-09-23T07:25:00.580Z,4.17
2022-09-23T07:26:00.584Z,4.72
2022-09-23T07:27:00.585Z,4.72
2022-09-23T07:28:00.580Z,4.72
2022-09-23T07:29:00.573Z,4.44
2022-09-23T07:30:00.577Z,4.72
2022-09-23T07:31:01.131Z,4.72
2022-09-23T07:32:11.204Z,4.89
2022-09-23T07:33:00.705Z,4.89
2022-09-23T07:34:00.604Z,5
2022-09-23T07:35:00.587Z,5.17
2022-09-23T07:36:00.587Z,5.17
2022-09-23T07:37:00.592Z,5
2022-09-23T07:38:00.582Z,5.17
2022-09-23T07:39:00.597Z,5.17
2022-09-23T07:40:00.593Z,5
2022-09-23T07:41:00.590Z,5
2022-09-23T07:42:00.589Z,5
2022-09-23T07:43:00.590Z,5.17
2022-09-23T07:44:00.778Z,5.17
2022-09-23T07:45:00.588Z,5.61
2022-09-23T07:46:00.642Z,5.17
2022-09-23T07:47:00.581Z,4.89
2022-09-23T07:48:00.588Z,5
2022-09-23T07:49:00.590Z,4.89
2022-09-23T07:50:00.606Z,4.89
2022-09-23T07:51:00.586Z,5.17
2022-09-23T07:52:00.585Z,5.61
2022-09-23T07:53:00.591Z,5.83
2022-09-23T07:54:00.585Z,5.83
2022-09-23T07:55:00.583Z,5.72
2022-09-23T07:56:00.594Z,5.44
2022-09-23T07:57:00.594Z,5.83
2022-09-23T07:58:00.592Z,6
2022-09-23T07:59:00.895Z,6.39
2022-09-23T08:00:00.588Z,6.39
2022-09-23T08:01:00.597Z,6.56
2022-09-23T08:02:00.664Z,6.72
2022-09-23T08:03:00.645Z,6.39
2022-09-23T08:04:00.587Z,6.39
2022-09-23T08:05:00.597Z,6.83
2022-09-23T08:06:00.619Z,6.83
2022-09-23T08:07:00.584Z,7
2022-09-23T08:08:00.597Z,7.28
2022-09-23T08:09:00.629Z,7.72
2022-09-23T08:10:00.592Z,7.61
2022-09-23T08:11:00.591Z,7.44
2022-09-23T08:12:00.590Z,7.17
2022-09-23T08:13:00.602Z,7.28
2022-09-23T08:14:00.604Z,6.83
2022-09-23T08:15:00.597Z,6.83
2022-09-23T08:16:00.640Z,6.56
2022-09-23T08:17:00.597Z,6.72
2022-09-23T08:18:00.597Z,6.28
2022-09-23T08:19:00.670Z,6.39
2022-09-23T08:20:00.601Z,6.83
2022-09-23T08:21:00.596Z,7.28
2022-09-23T08:22:00.627Z,7.06
2022-09-23T08:23:00.597Z,7.17
2022-09-23T08:24:00.650Z,6.67
2022-09-23T08:25:00.596Z,6.06
2022-09-23T08:26:00.599Z,6.67
2022-09-23T08:27:00.605Z,7.28
2022-09-23T08:28:00.604Z,7.44
2022-09-23T08:29:00.603Z,7.61
2022-09-23T08:30:00.601Z,7.44
2022-09-23T08:31:00.671Z,7.67
2022-09-23T08:32:00.604Z,7.61
2022-09-23T08:33:00.602Z,8.22
2022-09-23T08:34:00.600Z,7.39
2022-09-23T08:35:00.602Z,7.5
2022-09-23T08:36:00.601Z,7.5
2022-09-23T08:37:00.603Z,7.94
2022-09-23T08:38:00.629Z,8.61
2022-09-23T08:39:00.599Z,8.67
2022-09-23T08:40:00.599Z,8.83
2022-09-23T08:41:00.608Z,8.67
2022-09-23T08:42:00.603Z,7.94
2022-09-23T08:43:00.602Z,7.11
2022-09-23T08:44:00.597Z,7.78
2022-09-23T08:45:00.608Z,8.11
2022-09-23T08:46:00.628Z,8.39
2022-09-23T08:47:00.609Z,7.94
2022-09-23T08:48:00.607Z,8.11
2022-09-23T08:49:00.596Z,8.39
2022-09-23T08:50:00.604Z,7.22
2022-09-23T08:51:00.600Z,7.5
2022-09-23T08:52:00.599Z,7.22
2022-09-23T08:53:00.600Z,7.5
2022-09-23T08:54:00.632Z,8.28
2022-09-23T08:55:00.607Z,8.61
2022-09-23T08:56:00.604Z,8.39
2022-09-23T08:57:00.603Z,7.39
2022-09-23T08:58:24.788Z,7.67
2022-09-23T08:59:00.608Z,7.94
2022-09-23T09:00:00.608Z,8.11
2022-09-23T09:01:00.634Z,8.11
2022-09-23T09:02:00.604Z,7.94
2022-09-23T09:03:00.609Z,7.94
2022-09-23T09:04:00.614Z,8.39
2022-09-23T09:05:00.613Z,7.94
2022-09-23T09:06:00.614Z,8.78
2022-09-23T09:07:18.261Z,8.39
2022-09-23T09:08:00.618Z,8.78
2022-09-23T09:09:00.674Z,9.5
2022-09-23T09:10:00.694Z,9.22
2022-09-23T09:11:00.613Z,9.06
2022-09-23T09:12:00.608Z,9.22
2022-09-23T09:13:00.611Z,9.5
2022-09-23T09:14:00.609Z,9.39
2022-09-23T09:15:00.608Z,8.94
2022-09-23T09:16:00.654Z,9.39
2022-09-23T09:17:01.308Z,9.22
2022-09-23T09:18:00.607Z,8.78
2022-09-23T09:19:00.611Z,9.5
2022-09-23T09:20:00.609Z,9.5
2022-09-23T09:21:00.614Z,9.67
2022-09-23T09:22:00.612Z,10.11
2022-09-23T09:23:00.693Z,9.78
2022-09-23T09:24:00.643Z,9.5
2022-09-23T09:25:00.612Z,9.39
2022-09-23T09:26:00.654Z,9.22
2022-09-23T09:27:00.618Z,8.78
2022-09-23T09:28:00.621Z,9.39
2022-09-23T09:29:11.341Z,9.5
2022-09-23T09:30:00.614Z,9.67
2022-09-23T09:31:00.653Z,10.67
2022-09-23T09:32:00.617Z,11.28
2022-09-23T09:33:00.612Z,11.44
2022-09-23T09:34:00.613Z,10.56
2022-09-23T09:35:00.615Z,10.11
2022-09-23T09:36:00.618Z,11.11
2022-09-23T09:37:04.738Z,11.28
2022-09-23T09:38:00.622Z,11.83
2022-09-23T09:39:00.651Z,11.94
2022-09-23T09:40:00.617Z,11.83
2022-09-23T09:41:00.615Z,11.83
2022-09-23T09:42:00.641Z,11.83
2022-09-23T09:43:00.621Z,11.44
2022-09-23T09:44:00.808Z,10.83
2022-09-23T09:45:00.615Z,10.22
2022-09-23T09:46:00.617Z,10.67
2022-09-23T09:47:00.722Z,11
2022-09-23T09:48:00.631Z,10.67
2022-09-23T09:49:00.666Z,10.83
2022-09-23T09:50:00.628Z,10.83
2022-09-23T09:51:00.618Z,10.83
2022-09-23T09:52:00.623Z,10.67
2022-09-23T09:53:00.570Z,10.39
2022-09-23T09:54:00.572Z,10.39
2022-09-23T09:55:00.568Z,10.56
2022-09-23T09:56:04.529Z,10.56
2022-09-23T09:57:00.563Z,10.11
2022-09-23T09:58:00.598Z,10.39
2022-09-23T09:59:00.635Z,11
2022-09-23T10:00:00.570Z,10.83
2022-09-23T10:01:00.580Z,11.28
2022-09-23T10:02:00.566Z,11.44
2022-09-23T10:03:00.567Z,11.28
2022-09-23T10:04:00.575Z,11
2022-09-23T10:05:00.562Z,10.83
2022-09-23T10:06:00.569Z,10.56
2022-09-23T10:07:00.566Z,10.83
2022-09-23T10:08:00.583Z,12.28
2022-09-23T10:09:00.562Z,12.28
2022-09-23T10:10:05.972Z,11.83
2022-09-23T10:11:00.571Z,11.44
2022-09-23T10:12:00.569Z,11.61
2022-09-23T10:13:00.561Z,11.61
2022-09-23T10:14:00.595Z,12.28
2022-09-23T10:15:00.567Z,12.89
2022-09-23T10:16:00.566Z,12.28
2022-09-23T10:17:00.634Z,12.28
2022-09-23T10:18:00.612Z,11.94
2022-09-23T10:19:00.653Z,12.72
2022-09-23T10:20:00.558Z,12.72
2022-09-23T10:21:00.578Z,13.33
2022-09-23T10:22:00.571Z,13.17
2022-09-23T10:23:00.563Z,13.06
2022-09-23T10:24:00.570Z,12.56
2022-09-23T10:25:00.563Z,12.44
2022-09-23T10:26:00.564Z,12.11
2022-09-23T10:27:00.573Z,12.28
2022-09-23T10:28:02.631Z,12.28
2022-09-23T10:29:00.595Z,12.72
2022-09-23T10:30:00.608Z,13.17
2022-09-23T10:31:00.644Z,13.06
2022-09-23T10:32:00.601Z,13.17
2022-09-23T10:33:00.577Z,12.89
2022-09-23T10:34:00.566Z,12.89
2022-09-23T10:35:00.566Z,12.56
2022-09-23T10:36:00.569Z,12.28
2022-09-23T10:37:00.571Z,13.17
2022-09-23T10:38:00.648Z,13.78
2022-09-23T10:39:00.632Z,13.5
2022-09-23T10:40:00.574Z,13.06
2022-09-23T10:41:00.663Z,12.44
2022-09-23T10:42:00.582Z,13.17
2022-09-23T10:43:00.584Z,13.78
2022-09-23T10:44:00.667Z,13.78
2022-09-23T10:45:00.582Z,13.94
2022-09-23T10:46:00.644Z,13.33
2022-09-23T10:47:00.580Z,13.5
2022-09-23T10:48:00.572Z,13.67
2022-09-23T10:49:00.589Z,13.22
2022-09-23T10:50:00.579Z,13.39
2022-09-23T10:51:00.585Z,13.17
2022-09-23T10:52:00.578Z,13.22
2022-09-23T10:53:00.588Z,13.22
2022-09-23T10:54:00.642Z,12.78
2022-09-23T10:55:00.585Z,12.78
2022-09-23T10:56:00.583Z,13.22
2022-09-23T10:57:00.590Z,13.83
2022-09-23T10:58:00.591Z,14.78
2022-09-23T10:59:00.581Z,14.78
2022-09-23T11:00:00.597Z,13.83
2022-09-23T11:01:00.652Z,13.56
2022-09-23T11:02:00.732Z,13.56
2022-09-23T11:03:00.587Z,13.83
2022-09-23T11:04:00.765Z,14.28
2022-09-23T11:05:00.634Z,14
2022-09-23T11:06:00.588Z,14.28
2022-09-23T11:07:00.593Z,14.89
2022-09-23T11:08:00.591Z,14.78
2022-09-23T11:09:00.594Z,15.17
2022-09-23T11:10:00.600Z,14.61
2022-09-23T11:11:00.599Z,14.78
2022-09-23T11:12:00.596Z,14.61
2022-09-23T11:13:00.610Z,14.28
2022-09-23T11:14:00.595Z,14.28
2022-09-23T11:15:00.592Z,14.11
2022-09-23T11:16:00.600Z,14.61
2022-09-23T11:17:00.632Z,14.78
2022-09-23T11:18:00.629Z,15.17
2022-09-23T11:19:00.608Z,15.06
2022-09-23T11:20:00.605Z,15.17
2022-09-23T11:21:00.601Z,15.61
2022-09-23T11:22:00.608Z,16.72
2022-09-23T11:23:00.602Z,16.39
2022-09-23T11:24:00.658Z,16.06
2022-09-23T11:25:00.601Z,16.06
2022-09-23T11:26:00.605Z,16.72
2022-09-23T11:27:00.614Z,16.56
2022-09-23T11:28:00.601Z,15.61
2022-09-23T11:29:00.609Z,15.28
2022-09-23T11:30:00.610Z,15.61
2022-09-23T11:31:00.640Z,16.06
2022-09-23T11:32:00.615Z,17.17
2022-09-23T11:33:00.647Z,17.5
2022-09-23T11:34:00.702Z,17.67
2022-09-23T11:35:00.613Z,17.83
2022-09-23T11:36:00.607Z,17.5
2022-09-23T11:37:00.614Z,17.5
2022-09-23T11:38:00.617Z,16.89
2022-09-23T11:39:00.627Z,16.89
2022-09-23T11:40:00.613Z,16.72
2022-09-23T11:41:00.629Z,16.89
2022-09-23T11:42:00.621Z,16.56
2022-09-23T11:43:00.617Z,17
2022-09-23T11:44:00.671Z,17
2022-09-23T11:45:00.622Z,16.56
2022-09-23T11:46:00.652Z,17
2022-09-23T11:47:00.615Z,17.67
2022-09-23T11:48:00.611Z,17.83
2022-09-23T11:49:00.613Z,17.94
2022-09-23T11:50:00.653Z,18.44
2022-09-23T11:51:00.616Z,16.89
2022-09-23T11:52:00.622Z,16.06
2022-09-23T11:53:00.627Z,16.39
2022-09-23T11:54:00.647Z,16.22
2022-09-23T11:55:02.434Z,16.72
2022-09-23T11:56:00.627Z,17.94
2022-09-23T11:57:00.620Z,17.67
2022-09-23T11:58:00.623Z,17.83
2022-09-23T11:59:00.723Z,17.67
2022-09-23T12:00:00.638Z,17.94
2022-09-23T12:01:01.356Z,17.5
2022-09-23T12:02:09.090Z,17.5
2022-09-23T12:03:05.298Z,16.56
2022-09-23T12:04:07.951Z,16.56
2022-09-23T12:05:00.805Z,16.56
2022-09-23T12:06:00.727Z,16.56
2022-09-23T12:07:00.622Z,16.56
2022-09-23T12:08:00.630Z,17.17
2022-09-23T12:09:00.630Z,17.94
2022-09-23T12:10:00.622Z,17.17
2022-09-23T12:11:00.627Z,16.56
2022-09-23T12:12:00.624Z,16.22
2022-09-23T12:13:00.629Z,17
2022-09-23T12:14:00.692Z,16.72
2022-09-23T12:15:00.623Z,17.33
2022-09-23T12:16:00.636Z,17.33
2022-09-23T12:17:00.681Z,17.5
2022-09-23T12:18:00.634Z,18.17
2022-09-23T12:19:00.630Z,18.44
2022-09-23T12:20:00.631Z,18.28
2022-09-23T12:21:00.633Z,18.44
2022-09-23T12:22:00.653Z,17.83
2022-09-23T12:23:00.635Z,17.94
2022-09-23T12:24:00.723Z,17.94
2022-09-23T12:25:00.635Z,17.94
2022-09-23T12:26:00.644Z,18.17
2022-09-23T12:27:00.637Z,18.44
2022-09-23T12:28:00.637Z,18.61
2022-09-23T12:29:00.636Z,18.28
2022-09-23T12:30:00.639Z,18.94
2022-09-23T12:31:00.765Z,18.33
2022-09-23T12:32:00.636Z,18.33
2022-09-23T12:33:00.641Z,17.67
2022-09-23T12:34:00.675Z,17.22
2022-09-23T12:35:00.634Z,17.83
2022-09-23T12:36:00.637Z,18.17
2022-09-23T12:37:00.640Z,18.67
2022-09-23T12:38:00.672Z,18.67
2022-09-23T12:39:00.640Z,17.83
2022-09-23T12:40:00.640Z,18
2022-09-23T12:41:00.642Z,17.83
2022-09-23T12:42:00.631Z,17.39
2022-09-23T12:43:00.644Z,17.22
2022-09-23T12:44:00.698Z,17.83
2022-09-23T12:45:00.643Z,17.67
2022-09-23T12:46:00.685Z,17.67
2022-09-23T12:47:00.644Z,17.67
2022-09-23T12:48:00.641Z,18.17
2022-09-23T12:49:00.660Z,18.67
2022-09-23T12:50:00.640Z,19.11
2022-09-23T12:51:00.641Z,18.17
2022-09-23T12:52:00.639Z,18
2022-09-23T12:53:00.637Z,17.83
2022-09-23T12:54:00.709Z,18.17
2022-09-23T12:55:00.637Z,18.67
2022-09-23T12:56:00.643Z,19.11
2022-09-23T12:57:00.642Z,19.33
2022-09-23T12:58:00.641Z,19.11
2022-09-23T12:59:00.645Z,18.67
2022-09-23T13:00:00.642Z,18.33
2022-09-23T13:01:00.742Z,18.94
2022-09-23T13:02:00.787Z,18.94
2022-09-23T13:03:00.648Z,18.83
2022-09-23T13:04:00.679Z,18.83
2022-09-23T13:05:00.647Z,18.94
2022-09-23T13:06:00.654Z,19.61
2022-09-23T13:07:00.646Z,19.11
2022-09-23T13:08:00.654Z,18.94
2022-09-23T13:09:00.663Z,19.44
2022-09-23T13:10:00.671Z,19.11
2022-09-23T13:11:00.651Z,18.94
2022-09-23T13:12:00.661Z,18.83
2022-09-23T13:13:00.659Z,18.83
2022-09-23T13:14:00.661Z,18.94
2022-09-23T13:15:00.660Z,19.44
2022-09-23T13:16:00.703Z,19.33
2022-09-23T13:17:00.708Z,18.94
2022-09-23T13:18:00.649Z,18.94